createdAt,value
2022-09-20T00:00:24.607Z,3.2
2022-09-20T00:03:24.629Z,3.3
2022-09-20T00:06:24.673Z,2.9
2022-09-20T00:09:24.659Z,3.3
2022-09-20T00:12:24.671Z,3
2022-09-20T00:15:24.690Z,3.2
2022-09-20T00:18:24.720Z,3.5
2022-09-20T00:21:24.747Z,3.3
2022-09-20T00:24:24.795Z,3.1
2022-09-20T00:27:24.797Z,3.3
2022-09-20T00:30:24.822Z,3.1
2022-09-20T00:33:24.848Z,3.2
2022-09-20T00:36:24.879Z,3.3
2022-09-20T00:39:24.895Z,3.5
2022-09-20T00:42:24.937Z,3.3
2022-09-20T00:45:24.931Z,3.5
2022-09-20T00:48:24.956Z,3.8
2022-09-20T00:51:24.960Z,3.5
2022-09-20T00:54:24.985Z,3.8
2022-09-20T00:57:25.006Z,3.7
2022-09-20T01:00:25.047Z,3.9
2022-09-20T01:03:25.041Z,3.3
2022-09-20T01:06:25.064Z,3.8
2022-09-20T01:09:25.093Z,3.9
2022-09-20T01:12:25.115Z,3.6
2022-09-20T01:15:25.144Z,3.4
2022-09-20T01:18:25.171Z,3.5
2022-09-20T01:21:25.180Z,3.5
2022-09-20T01:24:25.207Z,3.5
2022-09-20T01:27:25.227Z,3.8
2022-09-20T01:30:25.248Z,3.6
2022-09-20T01:33:25.266Z,3.8
2022-09-20T01:36:25.298Z,3.5
2022-09-20T01:39:25.304Z,4.1
2022-09-20T01:42:25.324Z,4
2022-09-20T01:45:25.346Z,4.6
2022-09-20T01:48:25.359Z,5.6
2022-09-20T01:51:25.376Z,5.5
2022-09-20T01:54:25.420Z,6.1
2022-09-20T01:57:27.431Z,6.4
2022-09-20T02:00:25.448Z,7
2022-09-20T02:03:25.462Z,7.1
2022-09-20T02:06:25.492Z,7.8
2022-09-20T02:09:25.511Z,8.1
2022-09-20T02:12:25.564Z,8.1
2022-09-20T02:15:25.555Z,8.2
2022-09-20T02:18:25.585Z,8.7
2022-09-20T02:21:25.600Z,9.3
2022-09-20T02:24:25.615Z,9.7
2022-09-20T02:27:25.625Z,9
2022-09-20T02:30:25.675Z,9.8
2022-09-20T02:33:25.678Z,10.1
2022-09-20T02:36:25.699Z,10.7
2022-09-20T02:39:25.713Z,10.2
2022-09-20T02:42:25.722Z,10.7
2022-09-20T02:45:25.834Z,10.5
2022-09-20T02:48:25.799Z,10.6
2022-09-20T02:51:25.799Z,10.8
2022-09-20T02:54:25.819Z,11.4
2022-09-20T02:57:25.847Z,11.6
2022-09-20T03:00:25.878Z,12
2022-09-20T03:03:25.901Z,12
2022-09-20T03:06:26.006Z,12.6
2022-09-20T03:09:25.940Z,12.8
2022-09-20T03:12:25.974Z,12.5
2022-09-20T03:15:25.975Z,13
2022-09-20T03:18:25.986Z,13.4
2022-09-20T03:21:26.007Z,13.6
2022-09-20T03:24:26.050Z,14.1
2022-09-20T03:27:26.048Z,13.6
2022-09-20T03:30:26.063Z,13.9
2022-09-20T03:33:26.077Z,14.5
2022-09-20T03:36:26.108Z,14.5
2022-09-20T03:39:26.123Z,15.4
2022-09-20T03:42:26.176Z,15.4
2022-09-20T03:45:26.246Z,16.1
2022-09-20T03:48:26.205Z,14.6
2022-09-20T03:51:29.053Z,14.7
2022-09-20T03:54:26.251Z,15.7
2022-09-20T03:57:26.275Z,16
2022-09-20T04:00:26.323Z,15.6
2022-09-20T04:03:26.311Z,15.9
2022-09-20T04:06:26.338Z,15.1
2022-09-20T04:09:26.347Z,15
2022-09-20T04:12:26.352Z,15.6
2022-09-20T04:15:26.372Z,14.9
2022-09-20T04:18:26.425Z,15.4
2022-09-20T04:21:26.425Z,15.2
2022-09-20T04:24:26.434Z,16.3
2022-09-20T04:27:26.449Z,15.7
2022-09-20T04:30:26.476Z,15.9
2022-09-20T04:33:26.500Z,16.3
2022-09-20T04:36:26.562Z,16.6
2022-09-20T04:39:26.533Z,16.9
2022-09-20T04:42:26.559Z,16.2
2022-09-20T04:45:26.582Z,16.6
2022-09-20T04:48:26.607Z,16.3
2022-09-20T04:51:26.631Z,16.3
2022-09-20T04:54:26.667Z,16.2
2022-09-20T04:57:26.653Z,15.5
2022-09-20T05:00:26.682Z,16.9
2022-09-20T05:03:26.682Z,16
2022-09-20T05:06:26.718Z,16.4
2022-09-20T05:09:26.726Z,16.1
2022-09-20T05:12:26.772Z,16.3
2022-09-20T05:15:26.764Z,16.3
2022-09-20T05:18:26.798Z,16.4
2022-09-20T05:21:26.817Z,14.7
2022-09-20T05:24:26.833Z,14.9
2022-09-20T05:27:26.854Z,13.5
2022-09-20T05:30:26.897Z,11.3
2022-09-20T05:33:26.894Z,11.4
2022-09-20T05:36:29.172Z,12.2
2022-09-20T05:39:26.942Z,13.4
2022-09-20T05:42:26.946Z,13.6
2022-09-20T05:45:26.970Z,13.8
2022-09-20T05:48:27.011Z,13.1
2022-09-20T05:51:27.022Z,12
2022-09-20T05:54:27.027Z,10.3
2022-09-20T05:57:27.046Z,10.8
2022-09-20T06:00:27.060Z,10.1
2022-09-20T06:03:27.082Z,10.8
2022-09-20T06:06:31.799Z,10.3
2022-09-20T06:09:27.110Z,11.1
2022-09-20T06:12:27.133Z,10.9
2022-09-20T06:15:27.152Z,11.1
2022-09-20T06:18:27.169Z,10.2
2022-09-20T06:21:27.204Z,9.9
2022-09-20T06:24:27.243Z,11
2022-09-20T06:27:27.244Z,9.5
2022-09-20T06:30:27.351Z,8.6
2022-09-20T06:33:27.287Z,8.2
2022-09-20T06:36:27.315Z,8.4
2022-09-20T06:39:27.327Z,8.7
2022-09-20T06:42:27.538Z,8.1
2022-09-20T06:45:27.371Z,8
2022-09-20T06:48:27.392Z,7.4
2022-09-20T06:51:27.432Z,7.4
2022-09-20T06:54:27.434Z,7.6
2022-09-20T06:57:27.463Z,7.5
2022-09-20T07:00:27.505Z,7.8
2022-09-20T07:03:27.495Z,7.3
2022-09-20T07:06:27.533Z,7.2
2022-09-20T07:09:27.548Z,7.2
2022-09-20T07:12:27.575Z,7
2022-09-20T07:15:27.599Z,7
2022-09-20T07:18:27.731Z,6.5
2022-09-20T07:21:27.665Z,6.1
2022-09-20T07:24:27.665Z,5.7
2022-09-20T07:27:29.414Z,5.8
2022-09-20T07:30:27.716Z,5.8
2022-09-20T07:33:27.735Z,5.7
2022-09-20T07:36:27.785Z,6.7
2022-09-20T07:39:27.771Z,6.6
2022-09-20T07:42:27.794Z,6.9
2022-09-20T07:45:27.852Z,6.5
2022-09-20T07:48:27.835Z,6.8
2022-09-20T07:51:27.867Z,6.5
2022-09-20T07:54:27.886Z,7.2
2022-09-20T07:57:27.878Z,6.6
2022-09-20T08:00:27.909Z,7.5
2022-09-20T08:03:27.927Z,7.3
2022-09-20T08:06:27.965Z,7
2022-09-20T08:09:27.981Z,7.7
2022-09-20T08:15:28.019Z,7.9
2022-09-20T08:18:28.042Z,7.7
2022-09-20T08:21:28.053Z,8.2
2022-09-20T08:24:28.056Z,8.5
2022-09-20T08:27:28.061Z,8.5
2022-09-20T08:30:28.170Z,8.5
2022-09-20T08:33:28.147Z,8.4
2022-09-20T08:36:31.034Z,8.6
2022-09-20T08:42:28.645Z,8
2022-09-20T08:45:35.577Z,7.4
2022-09-20T08:48:28.180Z,8.1
2022-09-20T08:51:28.182Z,8.3
2022-09-20T08:54:32.071Z,8.4
2022-09-20T08:57:28.205Z,7.7
2022-09-20T09:00:28.229Z,8.2
2022-09-20T09:03:28.236Z,8
2022-09-20T09:06:28.300Z,7.8
2022-09-20T09:09:28.268Z,7.6
2022-09-20T09:12:28.273Z,7.7
2022-09-20T09:15:28.284Z,7.3
2022-09-20T09:18:31.567Z,7.3
2022-09-20T09:21:28.312Z,7.1
2022-09-20T09:24:28.324Z,6.7
2022-09-20T09:27:28.322Z,6.5
2022-09-20T09:30:28.338Z,6.6
2022-09-20T09:33:28.354Z,6.2
2022-09-20T09:36:28.374Z,6.1
2022-09-20T09:39:28.381Z,6.3
2022-09-20T09:42:28.419Z,6
2022-09-20T09:45:28.541Z,5.5
2022-09-20T09:48:28.421Z,5.1
2022-09-20T09:51:28.456Z,5.3
2022-09-20T09:54:28.439Z,5.5
2022-09-20T09:57:28.460Z,5.6
2022-09-20T10:00:28.491Z,6
2022-09-20T10:03:28.478Z,5.4
2022-09-20T10:06:28.496Z,5
2022-09-20T10:09:28.493Z,4.3
2022-09-20T10:12:28.503Z,4.8
2022-09-20T10:15:28.509Z,4.8
2022-09-20T10:18:28.545Z,5
2022-09-20T10:21:28.565Z,4.9
2022-09-20T10:24:28.551Z,4.3
2022-09-20T10:27:28.561Z,3.9
2022-09-20T10:30:28.573Z,3.7
2022-09-20T10:33:28.593Z,3.9
2022-09-20T10:36:28.646Z,3.8
2022-09-20T10:39:28.632Z,3.7
2022-09-20T10:42:28.628Z,3.5
2022-09-20T10:45:53.596Z,3.3
2022-09-20T10:48:28.656Z,3
2022-09-20T10:51:28.681Z,2.8
2022-09-20T10:54:28.714Z,2.7
2022-09-20T10:57:28.703Z,2.8
2022-09-20T11:00:28.695Z,2.9
2022-09-20T11:03:28.700Z,3
2022-09-20T11:06:28.727Z,2.7
2022-09-20T11:09:28.729Z,2.5
2022-09-20T11:12:28.827Z,2.3
2022-09-20T11:15:28.761Z,2.2
2022-09-20T11:18:28.769Z,2
2022-09-20T11:21:28.948Z,2.2
2022-09-20T11:24:28.798Z,2.1
2022-09-20T11:27:28.814Z,2
2022-09-20T11:30:28.854Z,2.3
2022-09-20T11:33:28.841Z,1.9
2022-09-20T11:36:28.895Z,1.8
2022-09-20T11:39:28.869Z,1.6
2022-09-20T11:42:28.876Z,1.5
2022-09-20T11:45:28.945Z,1.4
2022-09-20T11:48:28.915Z,1.3
2022-09-20T11:51:29.058Z,1.7
2022-09-20T11:54:28.898Z,1.4
2022-09-20T11:57:28.910Z,1.5
2022-09-20T12:00:28.922Z,1.1
2022-09-20T12:03:29.028Z,1.3
2022-09-20T12:06:28.981Z,1
2022-09-20T12:09:28.961Z,1.2
2022-09-20T12:12:28.983Z,1.2
2022-09-20T12:15:28.982Z,1.3
2022-09-20T12:18:28.998Z,1.2
2022-09-20T12:21:29.020Z,1.1
2022-09-20T12:24:29.045Z,1
2022-09-20T12:27:29.020Z,1.2
2022-09-20T12:30:29.046Z,1.3
2022-09-20T12:33:29.060Z,1.1
2022-09-20T12:36:29.081Z,1
2022-09-20T12:39:30.161Z,1
2022-09-20T12:42:29.104Z,1
2022-09-20T12:45:29.110Z,0.9
2022-09-20T12:48:29.092Z,0.9
2022-09-20T12:51:29.112Z,0.8
2022-09-20T12:54:29.115Z,0.9
2022-09-20T12:57:29.130Z,0.8
2022-09-20T13:00:29.162Z,0.9
2022-09-20T13:03:29.151Z,0.9
2022-09-20T13:06:29.176Z,0.8
2022-09-20T13:09:29.168Z,0.7
2022-09-20T13:12:29.184Z,0.8
2022-09-20T13:15:29.251Z,0.9
2022-09-20T13:18:29.334Z,0.9
2022-09-20T13:21:29.292Z,0.6
2022-09-20T13:24:29.520Z,0.6
2022-09-20T13:27:29.294Z,0.6
2022-09-20T13:30:29.295Z,0.5
2022-09-20T13:33:29.291Z,0.3
2022-09-20T13:36:29.335Z,0.4
2022-09-20T13:39:29.305Z,0.4
2022-09-20T13:42:29.980Z,0.4
2022-09-20T13:45:33.211Z,0.4
2022-09-20T13:48:29.306Z,0.4
2022-09-20T13:51:29.319Z,0.7
2022-09-20T13:54:29.328Z,0.4
2022-09-20T13:57:29.304Z,0.6
2022-09-20T14:00:29.308Z,0.6
2022-09-20T14:03:29.311Z,0.5
2022-09-20T14:06:29.321Z,0.7
2022-09-20T14:09:29.309Z,0.4
2022-09-20T14:12:29.340Z,0.5
2022-09-20T14:15:29.317Z,0.4
2022-09-20T14:18:29.313Z,0.4
2022-09-20T14:21:29.336Z,0.3
2022-09-20T14:24:29.317Z,0.3
2022-09-20T14:27:29.329Z,0.4
2022-09-20T14:30:29.352Z,0.5
2022-09-20T14:33:29.334Z,0.4
2022-09-20T14:36:29.340Z,0.3
2022-09-20T14:39:29.332Z,0.5
2022-09-20T14:42:29.336Z,0.4
2022-09-20T14:45:29.362Z,0.6
2022-09-20T14:48:29.361Z,0.4
2022-09-20T14:51:29.348Z,0.6
2022-09-20T14:54:29.344Z,0.4
2022-09-20T14:57:29.347Z,0.6
2022-09-20T15:00:29.358Z,0.5
2022-09-20T15:03:29.345Z,0.5
2022-09-20T15:06:29.432Z,0.7
2022-09-20T15:09:29.359Z,0.5
2022-09-20T15:12:29.368Z,0.8
2022-09-20T15:15:29.372Z,0.8
2022-09-20T15:18:29.359Z,0.9
2022-09-20T15:21:29.371Z,0.8
2022-09-20T15:24:29.393Z,0.8
2022-09-20T15:27:29.373Z,0.7
2022-09-20T15:30:29.378Z,0.7
2022-09-20T15:33:29.381Z,0.8
2022-09-20T15:36:29.403Z,0.9
2022-09-20T15:39:29.384Z,0.8
2022-09-20T15:42:29.402Z,1
2022-09-20T15:45:29.407Z,0.9
2022-09-20T15:48:29.384Z,0.8
2022-09-20T15:51:29.408Z,1.3
2022-09-20T15:54:29.388Z,1.3
2022-09-20T15:57:29.403Z,0.7
2022-09-20T16:00:29.541Z,0.8
2022-09-20T16:03:29.409Z,0.8
2022-09-20T16:06:29.421Z,0.8
2022-09-20T16:09:29.414Z,0.8
2022-09-20T16:12:29.416Z,0.7
2022-09-20T16:15:29.424Z,0.8
2022-09-20T16:18:29.574Z,0.8
2022-09-20T16:21:29.439Z,0.7
2022-09-20T16:24:29.433Z,0.8
2022-09-20T16:27:29.441Z,1.4
2022-09-20T16:30:29.438Z,0.7
2022-09-20T16:33:29.450Z,0.7
2022-09-20T16:36:29.508Z,0.8
2022-09-20T16:39:29.459Z,1.1
2022-09-20T16:42:29.470Z,1.1
2022-09-20T16:45:29.510Z,1.2
2022-09-20T16:48:29.484Z,0.8
2022-09-20T16:51:29.492Z,1.2
2022-09-20T16:54:31.863Z,0.8
2022-09-20T16:57:29.495Z,1.1
2022-09-20T17:00:29.496Z,1.9
2022-09-20T17:03:29.500Z,1.9
2022-09-20T17:06:29.520Z,2.5
2022-09-20T17:09:29.528Z,2.3
2022-09-20T17:12:29.542Z,1.1
2022-09-20T17:15:29.524Z,1.2
2022-09-20T17:18:29.537Z,1.4
2022-09-20T17:21:29.542Z,1.4
2022-09-20T17:24:29.549Z,1.4
2022-09-20T17:27:29.546Z,2.7
2022-09-20T17:30:29.575Z,2.7
2022-09-20T17:33:29.556Z,3.3
2022-09-20T17:36:29.577Z,1.8
2022-09-20T17:39:29.581Z,1.3
2022-09-20T17:42:29.583Z,1.3
2022-09-20T17:45:29.588Z,1.5
2022-09-20T17:48:29.688Z,1.9
2022-09-20T17:51:29.614Z,1.8
2022-09-20T17:54:29.608Z,2.2
2022-09-20T17:57:29.624Z,2.2
2022-09-20T18:00:29.637Z,1.7
2022-09-20T18:03:29.665Z,1.6
2022-09-20T18:06:29.672Z,1.4
2022-09-20T18:09:29.646Z,1.9
2022-09-20T18:12:29.654Z,2.1
2022-09-20T18:15:29.661Z,1.5
2022-09-20T18:18:29.671Z,1.4
2022-09-20T18:21:29.692Z,1.6
2022-09-20T18:24:29.701Z,1.6
2022-09-20T18:27:29.700Z,1.5
2022-09-20T18:30:29.697Z,1.5
2022-09-20T18:33:29.703Z,1.5
2022-09-20T18:36:29.716Z,1.5
2022-09-20T18:39:29.712Z,2.1
2022-09-20T18:42:29.873Z,1.9
2022-09-20T18:45:29.713Z,1.8
2022-09-20T18:48:29.717Z,1.8
2022-09-20T18:51:29.734Z,2.2
2022-09-20T18:54:29.725Z,1.9
2022-09-20T18:57:29.727Z,1.9
2022-09-20T19:00:29.776Z,1.9
2022-09-20T19:03:29.728Z,2.1
2022-09-20T19:06:29.742Z,2.3
2022-09-20T19:09:29.739Z,2.2
2022-09-20T19:12:29.731Z,2.2
2022-09-20T19:15:29.734Z,2.2
2022-09-20T19:18:29.761Z,2
2022-09-20T19:21:29.758Z,2.2
2022-09-20T19:24:29.743Z,2.3
2022-09-20T19:27:29.745Z,2.5
2022-09-20T19:30:29.750Z,2.4
2022-09-20T19:33:29.746Z,2.5
2022-09-20T19:36:29.778Z,2.3
2022-09-20T19:39:29.746Z,2.4
2022-09-20T19:42:29.748Z,2.3
2022-09-20T19:45:29.745Z,2.3
2022-09-20T19:48:29.745Z,2.2
2022-09-20T19:51:29.768Z,2.2
2022-09-20T19:54:29.780Z,2.1
2022-09-20T19:57:29.760Z,2
2022-09-20T20:00:29.762Z,2.2
2022-09-20T20:03:29.763Z,2.1
2022-09-20T20:06:29.782Z,2.4
2022-09-20T20:09:29.770Z,2.1
2022-09-20T20:12:29.791Z,2.1
2022-09-20T20:15:29.773Z,2.2
2022-09-20T20:18:29.774Z,2.3
2022-09-20T20:21:29.783Z,2.3
2022-09-20T20:24:29.776Z,2.3
2022-09-20T20:27:29.778Z,2.5
2022-09-20T20:30:29.796Z,2.2
2022-09-20T20:33:29.786Z,2.4
2022-09-20T20:36:29.779Z,2.3
2022-09-20T20:39:29.781Z,2.5
2022-09-20T20:42:29.771Z,2.2
2022-09-20T20:45:29.775Z,2.2
2022-09-20T20:48:29.806Z,2.1
2022-09-20T20:51:29.791Z,2.2
2022-09-20T20:54:29.775Z,2.1
2022-09-20T20:57:29.778Z,2.2
2022-09-20T21:00:29.783Z,2.2
2022-09-20T21:03:29.787Z,2
2022-09-20T21:06:29.828Z,2
2022-09-20T21:09:29.790Z,1.9
2022-09-20T21:12:29.788Z,1.9
2022-09-20T21:15:29.861Z,2.2
2022-09-20T21:18:29.794Z,2.1
2022-09-20T21:21:29.823Z,2
2022-09-20T21:24:29.814Z,2.1
2022-09-20T21:27:29.792Z,2.2
2022-09-20T21:30:29.793Z,2.5
2022-09-20T21:33:29.792Z,2.2
2022-09-20T21:36:29.806Z,2.4
2022-09-20T21:39:29.795Z,3.2
2022-09-20T21:42:29.818Z,2.5
2022-09-20T21:45:29.817Z,2.7
2022-09-20T21:48:29.818Z,3.2
2022-09-20T21:51:29.877Z,3.6
2022-09-20T21:54:29.843Z,3.4
2022-09-20T21:57:29.817Z,3.3
2022-09-20T22:00:29.944Z,3.4
2022-09-20T22:03:29.807Z,3.6
2022-09-20T22:06:29.838Z,3.5
2022-09-20T22:09:29.821Z,3.3
2022-09-20T22:12:29.832Z,3.4
2022-09-20T22:15:29.893Z,3.6
2022-09-20T22:18:29.857Z,3.4
2022-09-20T22:21:29.860Z,3.5
2022-09-20T22:24:29.826Z,3.7
2022-09-20T22:27:29.846Z,3.8
2022-09-20T22:30:29.860Z,3.7
2022-09-20T22:33:29.840Z,3.7
2022-09-20T22:36:29.887Z,4
2022-09-20T22:39:29.857Z,3.9
2022-09-20T22:42:29.856Z,3.7
2022-09-20T22:45:29.834Z,3.9
2022-09-20T22:48:29.838Z,3.9
2022-09-20T22:51:29.871Z,4.1
2022-09-20T22:54:29.872Z,4.2
2022-09-20T22:57:29.847Z,4.5
2022-09-20T23:00:29.849Z,4.7
2022-09-20T23:03:29.924Z,4.6
2022-09-20T23:06:29.903Z,4.7
2022-09-20T23:09:29.861Z,5.4
2022-09-20T23:12:29.895Z,5.5
2022-09-20T23:15:29.860Z,5.2
2022-09-20T23:18:29.860Z,5.1
2022-09-20T23:21:29.867Z,4.9
2022-09-20T23:24:29.862Z,5
2022-09-20T23:27:29.867Z,5.2
2022-09-20T23:30:29.968Z,4.8
2022-09-20T23:33:29.862Z,5.1
2022-09-20T23:36:29.874Z,5.4
2022-09-20T23:39:29.867Z,5.2
2022-09-20T23:42:29.878Z,5.4
2022-09-20T23:45:29.896Z,5.7
2022-09-20T23:48:29.895Z,5.6
2022-09-20T23:51:29.887Z,5.9
2022-09-20T23:54:29.882Z,6.2
2022-09-20T23:57:29.885Z,6.6
